createdAt,value
2022-08-05T00:00:18.398Z,73.31
2022-08-05T00:02:51.767Z,73.41
2022-08-05T00:06:02.940Z,72.31
2022-08-05T00:08:34.061Z,73.75
2022-08-05T00:11:00.279Z,72.85
2022-08-05T00:13:38.981Z,73.76
2022-08-05T00:16:12.602Z,75.47
2022-08-05T00:18:42.381Z,75.56
2022-08-05T00:21:12.692Z,75.82
2022-08-05T00:23:46.250Z,75.60
2022-08-05T00:26:22.157Z,75.51
2022-08-05T00:28:50.601Z,76.49
2022-08-05T00:31:53.862Z,78.12
2022-08-05T00:34:55.584Z,79.48
2022-08-05T00:37:12.908Z,79.94
2022-08-05T00:39:57.198Z,80.75
2022-08-05T00:42:31.666Z,81.49
2022-08-05T00:45:00.628Z,83.01
2022-08-05T00:47:53.219Z,82.95
2022-08-05T00:50:15.801Z,82.49
2022-08-05T00:52:45.384Z,84.44
2022-08-05T00:55:14.023Z,83.69
2022-08-05T00:57:58.607Z,83.77
2022-08-05T01:00:29.128Z,84.92
2022-08-05T01:02:59.740Z,85.87
2022-08-05T01:05:27.723Z,85.08
2022-08-05T01:08:40.147Z,84.91
2022-08-05T01:10:52.877Z,86.43
2022-08-05T01:13:58.456Z,87.29
2022-08-05T01:16:37.578Z,88.50
2022-08-05T01:19:56.827Z,88.90
2022-08-05T01:22:57.385Z,90.09
2022-08-05T01:25:50.268Z,93.04
2022-08-05T01:28:39.739Z,92.10
2022-08-05T01:31:14.900Z,94.12
2022-08-05T01:34:10.809Z,93.51
2022-08-05T01:36:47.724Z,95.31
2022-08-05T01:39:46.223Z,95.16
2022-08-05T01:42:09.715Z,97.16
2022-08-05T01:44:39.130Z,97.01
2022-08-05T01:47:09.628Z,97.66
2022-08-05T01:50:00.145Z,96.48
2022-08-05T01:52:28.193Z,97.86
2022-08-05T01:55:01.549Z,97.54
2022-08-05T01:58:11.255Z,99.13
2022-08-05T02:00:30.698Z,97.88
2022-08-05T02:03:05.540Z,97.23
2022-08-05T02:05:36.836Z,95.23
2022-08-05T02:08:05.631Z,94.56
2022-08-05T02:10:41.745Z,95.91
2022-08-05T02:13:53.811Z,97.44
2022-08-05T02:16:34.276Z,98.65
2022-08-05T02:19:12.284Z,97.99
2022-08-05T02:21:49.147Z,100.00
2022-08-05T02:24:23.212Z,99.53
2022-08-05T02:26:55.639Z,100.00
2022-08-05T02:29:58.830Z,100.00
2022-08-05T02:32:19.934Z,100.00
2022-08-05T02:34:54.903Z,100.00
2022-08-05T02:37:24.054Z,100.00
2022-08-05T02:39:53.552Z,100.00
2022-08-05T02:42:25.658Z,100.00
2022-08-05T02:44:54.454Z,100.00
2022-08-05T02:47:22.609Z,100.00
2022-08-05T02:49:50.801Z,100.00
2022-08-05T02:52:29.996Z,100.00
2022-08-05T02:55:01.783Z,100.00
2022-08-05T02:58:09.287Z,100.00
2022-08-05T03:00:21.345Z,100.00
2022-08-05T03:02:48.866Z,100.00
2022-08-05T03:05:17.134Z,100.00
2022-08-05T03:08:06.796Z,100.00
2022-08-05T03:10:34.740Z,100.00
2022-08-05T03:15:28.015Z,100.00
2022-08-05T03:17:57.640Z,100.00
2022-08-05T03:20:25.459Z,100.00
2022-08-05T03:22:57.066Z,100.00
2022-08-05T03:25:33.904Z,100.00
2022-08-05T03:28:14.834Z,100.00
2022-08-05T03:30:49.049Z,100.00
2022-08-05T03:33:17.793Z,100.00
2022-08-05T03:35:46.517Z,100.00
2022-08-05T03:38:14.971Z,100.00
2022-08-05T03:40:45.132Z,100.00
2022-08-05T03:43:58.284Z,100.00
2022-08-05T03:46:03.329Z,100.00
2022-08-05T03:48:35.671Z,100.00
2022-08-05T03:52:48.929Z,100.00
2022-08-05T03:55:49.774Z,100.00
2022-08-05T03:57:16.493Z,100.00
2022-08-05T04:00:07.451Z,100.00
2022-08-05T04:02:52.123Z,100.00
2022-08-05T04:05:33.164Z,100.00
2022-08-05T04:08:14.757Z,100.00
2022-08-05T04:10:55.543Z,100.00
2022-08-05T04:13:23.497Z,100.00
2022-08-05T04:16:03.281Z,100.00
2022-08-05T04:18:32.343Z,100.00
2022-08-05T04:21:03.796Z,100.00
2022-08-05T04:24:05.015Z,100.00
2022-08-05T04:26:20.237Z,100.00
2022-08-05T04:28:51.945Z,100.00
2022-08-05T04:31:20.087Z,100.00
2022-08-05T04:34:17.690Z,100.00
2022-08-05T04:36:45.577Z,100.00
2022-08-05T04:39:18.639Z,100.00
2022-08-05T04:41:48.117Z,100.00
2022-08-05T04:44:21.228Z,100.00
2022-08-05T04:47:09.588Z,100.00
2022-08-05T04:50:01.574Z,100.00
2022-08-05T04:52:27.463Z,100.00
2022-08-05T04:54:57.298Z,100.00
2022-08-05T04:57:29.002Z,100.00
2022-08-05T04:59:58.671Z,100.00
2022-08-05T05:02:36.594Z,100.00
2022-08-05T05:05:16.929Z,100.00
2022-08-05T05:08:02.061Z,100.00
2022-08-05T05:10:38.908Z,100.00
2022-08-05T05:13:09.922Z,100.00
2022-08-05T05:15:56.510Z,100.00
2022-08-05T05:18:31.158Z,100.00
2022-08-05T05:21:02.107Z,100.00
2022-08-05T05:24:02.310Z,100.00
2022-08-05T05:26:17.926Z,100.00
2022-08-05T05:28:45.353Z,100.00
2022-08-05T05:31:12.991Z,100.00
2022-08-05T05:33:43.383Z,100.00
2022-08-05T05:36:28.785Z,100.00
2022-08-05T05:38:57.881Z,100.00
2022-08-05T05:41:26.142Z,100.00
2022-08-05T05:44:37.377Z,100.00
2022-08-05T05:46:55.315Z,100.00
2022-08-05T05:49:26.266Z,100.00
2022-08-05T05:51:56.449Z,98.28
2022-08-05T05:54:34.990Z,98.36
2022-08-05T05:57:13.776Z,100.00
2022-08-05T05:59:47.014Z,99.51
2022-08-05T06:02:16.464Z,94.51
2022-08-05T06:04:44.315Z,96.93
2022-08-05T06:07:16.596Z,91.45
2022-08-05T06:10:01.408Z,92.44
2022-08-05T06:12:34.916Z,96.41
2022-08-05T06:15:13.533Z,94.37
2022-08-05T06:17:53.412Z,89.83
2022-08-05T06:20:21.916Z,80.65
2022-08-05T06:22:49.143Z,88.33
2022-08-05T06:25:59.095Z,85.63
2022-08-05T06:28:12.552Z,83.11
2022-08-05T06:30:49.124Z,80.26
2022-08-05T06:33:19.331Z,75.05
2022-08-05T06:36:03.814Z,77.90
2022-08-05T06:38:37.056Z,78.21
2022-08-05T06:41:05.459Z,84.46
2022-08-05T06:43:57.507Z,93.52
2022-08-05T06:46:30.418Z,100.00
2022-08-05T06:48:59.755Z,100.00
2022-08-05T06:51:30.759Z,100.00
2022-08-05T06:53:59.771Z,100.00
2022-08-05T06:56:34.446Z,100.00
2022-08-05T06:59:08.642Z,100.00
2022-08-05T07:01:37.477Z,100.00
2022-08-05T07:04:08.829Z,100.00
2022-08-05T07:06:36.214Z,100.00
2022-08-05T07:09:04.666Z,100.00
2022-08-05T07:11:36.970Z,100.00
2022-08-05T07:14:29.395Z,100.00
2022-08-05T07:18:02.423Z,100.00
2022-08-05T07:22:41.916Z,100.00
2022-08-05T07:25:54.122Z,100.00
2022-08-05T07:28:05.356Z,100.00
2022-08-05T07:30:39.207Z,100.00
2022-08-05T07:33:15.466Z,100.00
2022-08-05T07:36:01.939Z,100.00
2022-08-05T07:38:34.033Z,100.00
2022-08-05T07:42:08.122Z,100.00
2022-08-05T07:43:57.180Z,100.00
2022-08-05T07:46:26.835Z,100.00
2022-08-05T07:49:03.654Z,100.00
2022-08-05T07:51:40.411Z,100.00
2022-08-05T07:54:09.708Z,100.00
2022-08-05T07:56:39.375Z,100.00
2022-08-05T07:59:38.673Z,100.00
2022-08-05T08:02:15.916Z,100.00
2022-08-05T08:04:46.342Z,100.00
2022-08-05T08:07:14.114Z,100.00
2022-08-05T08:09:43.227Z,100.00
2022-08-05T08:12:33.378Z,100.00
2022-08-05T08:15:02.743Z,100.00
2022-08-05T08:17:32.816Z,100.00
2022-08-05T08:20:23.059Z,100.00
2022-08-05T08:22:53.263Z,100.00
2022-08-05T08:25:26.930Z,100.00
2022-08-05T08:28:18.390Z,100.00
2022-08-05T08:30:58.409Z,100.00
2022-08-05T08:33:25.503Z,100.00
2022-08-05T08:36:12.959Z,100.00
2022-08-05T08:38:42.342Z,100.00
2022-08-05T08:41:22.521Z,100.00
2022-08-05T08:45:25.407Z,100.00
2022-08-05T08:46:44.171Z,100.00
2022-08-05T08:50:23.043Z,100.00
2022-08-05T08:52:13.723Z,100.00
2022-08-05T08:54:43.531Z,100.00
2022-08-05T08:57:13.754Z,100.00
2022-08-05T08:59:41.729Z,100.00
2022-08-05T09:02:16.694Z,100.00
2022-08-05T09:04:57.783Z,100.00
2022-08-05T09:07:40.055Z,100.00
2022-08-05T09:10:22.190Z,100.00
2022-08-05T09:12:56.940Z,100.00
2022-08-05T09:15:37.196Z,100.00
2022-08-05T09:18:09.794Z,100.00
2022-08-05T09:20:44.502Z,100.00
2022-08-05T09:23:19.626Z,100.00
2022-08-05T09:26:03.069Z,100.00
2022-08-05T09:28:35.433Z,100.00
2022-08-05T09:31:22.661Z,100.00
2022-08-05T09:34:01.805Z,100.00
2022-08-05T09:36:45.818Z,100.00
2022-08-05T09:39:39.178Z,100.00
2022-08-05T09:42:23.232Z,100.00
2022-08-05T09:44:55.999Z,100.00
2022-08-05T09:47:48.507Z,100.00
2022-08-05T09:50:38.703Z,100.00
2022-08-05T09:53:07.198Z,100.00
2022-08-05T09:55:57.457Z,100.00
2022-08-05T09:58:24.694Z,100.00
2022-08-05T10:01:13.482Z,100.00
2022-08-05T10:04:03.655Z,100.00
2022-08-05T10:06:31.891Z,100.00
2022-08-05T10:09:25.314Z,100.00
2022-08-05T10:12:31.080Z,100.00
2022-08-05T10:14:54.401Z,100.00
2022-08-05T10:17:37.632Z,100.00
2022-08-05T10:20:18.262Z,100.00
2022-08-05T10:22:51.109Z,100.00
2022-08-05T10:25:19.490Z,100.00
2022-08-05T10:28:13.129Z,100.00
2022-08-05T10:31:20.867Z,100.00
2022-08-05T10:33:28.786Z,98.70
2022-08-05T10:35:59.649Z,98.32
2022-08-05T10:38:29.246Z,100.00
2022-08-05T10:41:44.981Z,95.18
2022-08-05T10:44:18.274Z,95.63
2022-08-05T10:46:46.956Z,90.49
2022-08-05T10:49:26.763Z,92.90
2022-08-05T10:52:02.823Z,88.16
2022-08-05T10:55:05.347Z,81.64
2022-08-05T10:57:33.982Z,80.33
2022-08-05T11:00:18.151Z,78.50
2022-08-05T11:03:24.834Z,80.34
2022-08-05T11:06:03.970Z,81.86
2022-08-05T11:08:38.071Z,81.78
2022-08-05T11:11:42.075Z,74.74
2022-08-05T11:14:57.590Z,81.65
2022-08-05T11:18:00.386Z,88.01
2022-08-05T11:20:45.159Z,91.32
2022-08-05T11:24:04.618Z,89.73
2022-08-05T11:26:36.773Z,85.49
2022-08-05T11:29:13.015Z,80.89
2022-08-05T11:31:53.902Z,80.63
2022-08-05T11:34:38.184Z,76.69
2022-08-05T11:37:06.240Z,76.80
2022-08-05T11:39:55.402Z,67.71
2022-08-05T11:42:28.282Z,68.70
2022-08-05T11:45:03.546Z,67.66
2022-08-05T11:47:48.480Z,66.27
2022-08-05T11:50:18.178Z,67.10
2022-08-05T11:52:46.087Z,63.95
2022-08-05T11:55:16.384Z,62.40
2022-08-05T11:58:08.504Z,58.23
2022-08-05T12:00:38.293Z,59.03
2022-08-05T12:03:29.651Z,59.58
2022-08-05T12:06:10.192Z,56.44
2022-08-05T12:08:49.889Z,56.25
2022-08-05T12:11:28.301Z,54.71
2022-08-05T12:14:08.548Z,55.23
2022-08-05T12:16:40.152Z,53.40
2022-08-05T12:20:26.465Z,52.81
2022-08-05T12:22:01.257Z,50.72
2022-08-05T12:24:28.590Z,51.20
2022-08-05T12:26:57.750Z,49.31
2022-08-05T12:29:27.302Z,50.02
2022-08-05T12:32:02.220Z,49.27
2022-08-05T12:34:37.869Z,50.46
2022-08-05T12:37:17.251Z,51.32
2022-08-05T12:39:51.949Z,54.24
2022-08-05T12:42:21.413Z,57.21
2022-08-05T12:44:52.719Z,56.47
2022-08-05T12:47:30.751Z,52.02
2022-08-05T12:50:04.037Z,53.54
2022-08-05T12:52:42.497Z,51.71
2022-08-05T12:55:25.126Z,49.89
2022-08-05T12:58:49.250Z,52.31
2022-08-05T13:02:01.452Z,49.17
2022-08-05T13:03:42.169Z,49.58
2022-08-05T13:06:17.676Z,50.60
2022-08-05T13:08:52.227Z,51.09
2022-08-05T13:11:59.992Z,48.32
2022-08-05T13:14:38.234Z,49.79
2022-08-05T13:17:16.198Z,50.55
2022-08-05T13:20:09.727Z,50.68
2022-08-05T13:22:41.220Z,50.04
2022-08-05T13:25:18.671Z,51.01
2022-08-05T13:27:50.399Z,51.64
2022-08-05T13:30:34.107Z,51.27
2022-08-05T13:33:03.920Z,47.54
2022-08-05T13:35:47.190Z,46.08
2022-08-05T13:38:30.197Z,45.34
2022-08-05T13:40:59.856Z,46.93
2022-08-05T13:43:44.737Z,47.93
2022-08-05T13:46:16.159Z,46.61
2022-08-05T13:49:00.299Z,45.53
2022-08-05T13:51:40.276Z,44.31
2022-08-05T13:54:12.620Z,40.78
2022-08-05T13:56:45.434Z,43.87
2022-08-05T13:59:24.626Z,43.62
2022-08-05T14:01:58.262Z,42.76
2022-08-05T14:04:51.377Z,42.68
2022-08-05T14:07:55.766Z,44.52
2022-08-05T14:10:28.784Z,44.79
2022-08-05T14:12:59.523Z,43.98
2022-08-05T14:16:05.438Z,44.24
2022-08-05T14:18:18.707Z,45.04
2022-08-05T14:20:54.317Z,43.91
2022-08-05T14:23:26.253Z,44.93
2022-08-05T14:25:57.930Z,43.59
2022-08-05T14:28:30.417Z,43.12
2022-08-05T14:30:58.960Z,43.81
2022-08-05T14:33:26.805Z,43.77
2022-08-05T14:35:54.956Z,42.84
2022-08-05T14:38:32.892Z,44.14
2022-08-05T14:41:07.473Z,44.67
2022-08-05T14:44:02.168Z,44.16
2022-08-05T14:46:29.144Z,44.13
2022-08-05T14:48:59.715Z,43.55
2022-08-05T14:51:35.521Z,43.86
2022-08-05T14:54:26.844Z,44.40
2022-08-05T14:56:51.062Z,43.32
2022-08-05T14:59:22.231Z,44.62
2022-08-05T15:01:50.697Z,44.22
2022-08-05T15:04:20.742Z,44.48
2022-08-05T15:06:50.814Z,43.70
2022-08-05T15:09:51.890Z,44.49
2022-08-05T15:12:09.121Z,43.98
2022-08-05T15:14:48.131Z,44.50
2022-08-05T15:17:45.961Z,44.31
2022-08-05T15:20:18.256Z,43.48
2022-08-05T15:22:54.061Z,44.34
2022-08-05T15:25:51.667Z,45.01
2022-08-05T15:28:15.805Z,45.13
2022-08-05T15:30:45.881Z,45.35
2022-08-05T15:33:56.705Z,46.01
2022-08-05T15:36:05.952Z,44.76
2022-08-05T15:38:44.411Z,45.73
2022-08-05T15:41:22.122Z,45.63
2022-08-05T15:43:51.859Z,46.15
2022-08-05T15:46:24.411Z,46.19
2022-08-05T15:48:58.664Z,45.67
2022-08-05T15:52:09.848Z,46.95
2022-08-05T15:54:17.712Z,46.89
2022-08-05T15:56:44.978Z,46.79
2022-08-05T15:59:20.293Z,48.17
2022-08-05T16:01:52.635Z,47.38
2022-08-05T16:04:25.158Z,47.09
2022-08-05T16:06:56.347Z,47.94
2022-08-05T16:09:24.890Z,49.41
2022-08-05T16:11:53.864Z,50.71
2022-08-05T16:14:22.773Z,50.30
2022-08-05T16:16:50.753Z,50.78
2022-08-05T16:20:03.307Z,50.38
2022-08-05T16:22:10.745Z,51.34
2022-08-05T16:24:41.855Z,51.30
2022-08-05T16:27:19.570Z,52.02
2022-08-05T16:30:08.462Z,51.30
2022-08-05T16:32:50.986Z,52.97
2022-08-05T16:35:18.147Z,52.15
2022-08-05T16:38:03.148Z,53.18
2022-08-05T16:40:32.803Z,53.44
2022-08-05T16:43:02.159Z,54.02
2022-08-05T16:46:04.677Z,54.85
2022-08-05T16:48:25.500Z,56.83
2022-08-05T16:50:54.084Z,58.06
2022-08-05T16:53:32.012Z,58.68
2022-08-05T16:56:10.020Z,60.74
2022-08-05T16:58:39.138Z,64.21
2022-08-05T17:01:06.813Z,66.41
2022-08-05T17:03:38.956Z,69.20
2022-08-05T17:06:06.617Z,72.16
2022-08-05T17:08:51.880Z,76.28
2022-08-05T17:11:19.894Z,81.42
2022-08-05T17:14:00.449Z,83.82
2022-08-05T17:16:38.007Z,81.51
2022-08-05T17:19:07.517Z,79.59
2022-08-05T17:21:39.713Z,78.38
2022-08-05T17:24:28.197Z,71.96
2022-08-05T17:26:58.049Z,69.98
2022-08-05T17:29:40.024Z,67.01
2022-08-05T17:32:11.310Z,65.79
2022-08-05T17:34:39.978Z,71.03
2022-08-05T17:37:29.443Z,88.26
2022-08-05T17:39:55.834Z,100.00
2022-08-05T17:42:29.963Z,100.00
2022-08-05T17:45:18.242Z,100.00
2022-08-05T17:47:54.088Z,100.00
2022-08-05T17:50:28.694Z,100.00
2022-08-05T17:52:59.149Z,100.00
2022-08-05T17:55:37.198Z,100.00
2022-08-05T17:58:11.157Z,100.00
2022-08-05T18:00:45.228Z,100.00
2022-08-05T18:03:39.305Z,100.00
2022-08-05T18:06:06.044Z,100.00
2022-08-05T18:08:38.946Z,100.00
2022-08-05T18:11:24.218Z,100.00
2022-08-05T18:14:06.756Z,100.00
2022-08-05T18:16:51.063Z,100.00
2022-08-05T18:19:23.276Z,100.00
2022-08-05T18:22:09.645Z,100.00
2022-08-05T18:24:39.607Z,100.00
2022-08-05T18:27:12.975Z,100.00
2022-08-05T18:29:51.936Z,100.00
2022-08-05T18:32:21.447Z,100.00
2022-08-05T18:34:56.431Z,100.00
2022-08-05T18:37:33.951Z,100.00
2022-08-05T18:41:03.362Z,100.00
2022-08-05T18:42:56.740Z,100.00
2022-08-05T18:45:24.806Z,100.00
2022-08-05T18:47:56.795Z,100.00
2022-08-05T18:50:46.180Z,100.00
2022-08-05T18:53:20.478Z,100.00
2022-08-05T18:55:51.749Z,100.00
2022-08-05T18:58:18.901Z,100.00
2022-08-05T19:00:56.713Z,100.00
2022-08-05T19:03:53.277Z,100.00
2022-08-05T19:06:22.107Z,100.00
2022-08-05T19:08:58.665Z,100.00
2022-08-05T19:11:37.141Z,100.00
2022-08-05T19:14:59.328Z,100.00
2022-08-05T19:17:03.043Z,100.00
2022-08-05T19:19:33.696Z,100.00
2022-08-05T19:22:01.292Z,100.00
2022-08-05T19:24:34.503Z,100.00
2022-08-05T19:27:05.636Z,100.00
2022-08-05T19:29:35.739Z,100.00
2022-08-05T19:32:11.254Z,100.00
2022-08-05T19:34:39.209Z,100.00
2022-08-05T19:37:06.949Z,100.00
2022-08-05T19:39:45.714Z,100.00
2022-08-05T19:42:35.725Z,100.00
2022-08-05T19:45:05.836Z,100.00
2022-08-05T19:47:37.898Z,100.00
2022-08-05T19:50:07.552Z,100.00
2022-08-05T19:52:37.659Z,100.00
2022-08-05T19:56:11.610Z,100.00
2022-08-05T19:58:14.447Z,100.00
2022-08-05T20:00:41.742Z,100.00
2022-08-05T20:03:09.514Z,100.00
2022-08-05T20:05:43.245Z,100.00
2022-08-05T20:08:10.701Z,100.00
2022-08-05T20:10:38.078Z,100.00
2022-08-05T20:13:10.962Z,100.00
2022-08-05T20:15:52.389Z,100.00
2022-08-05T20:18:34.053Z,100.00
2022-08-05T20:21:06.770Z,100.00
2022-08-05T20:23:39.377Z,100.00
2022-08-05T20:26:17.442Z,100.00
2022-08-05T20:28:48.696Z,100.00
2022-08-05T20:31:17.242Z,100.00
2022-08-05T20:33:45.128Z,100.00
2022-08-05T20:36:16.453Z,100.00
2022-08-05T20:38:53.981Z,100.00
2022-08-05T20:41:43.919Z,100.00
2022-08-05T20:44:29.076Z,100.00
2022-08-05T20:47:00.245Z,100.00
2022-08-05T20:49:27.747Z,100.00
2022-08-05T20:51:57.670Z,100.00
2022-08-05T20:54:43.260Z,100.00
2022-08-05T20:57:24.780Z,100.00
2022-08-05T21:00:19.482Z,100.00
2022-08-05T21:02:56.933Z,100.00
2022-08-05T21:05:24.923Z,100.00
2022-08-05T21:07:52.617Z,100.00
2022-08-05T21:10:21.554Z,100.00
2022-08-05T21:12:55.510Z,100.00
2022-08-05T21:15:26.066Z,100.00
2022-08-05T21:18:01.980Z,100.00
2022-08-05T21:20:32.758Z,100.00
2022-08-05T21:23:00.977Z,100.00
2022-08-05T21:25:33.758Z,100.00
2022-08-05T21:28:03.500Z,100.00
2022-08-05T21:30:31.716Z,100.00
2022-08-05T21:33:01.783Z,100.00
2022-08-05T21:35:55.523Z,100.00
2022-08-05T21:38:19.223Z,100.00
2022-08-05T21:40:46.671Z,100.00
2022-08-05T21:43:24.073Z,100.00
2022-08-05T21:45:57.561Z,100.00
2022-08-05T21:48:28.951Z,100.00
2022-08-05T21:50:59.028Z,100.00
2022-08-05T21:53:27.532Z,100.00
2022-08-05T21:56:09.682Z,100.00
2022-08-05T21:58:57.178Z,100.00
2022-08-05T22:01:26.449Z,100.00
2022-08-05T22:03:54.503Z,100.00
2022-08-05T22:06:37.032Z,100.00
2022-08-05T22:09:13.963Z,100.00
2022-08-05T22:11:43.724Z,100.00
2022-08-05T22:14:33.136Z,100.00
2022-08-05T22:17:05.311Z,100.00
2022-08-05T22:20:01.158Z,100.00
2022-08-05T22:22:26.836Z,100.00
2022-08-05T22:25:21.357Z,100.00
2022-08-05T22:28:09.781Z,100.00
2022-08-05T22:30:55.359Z,100.00
2022-08-05T22:33:57.134Z,100.00
2022-08-05T22:36:14.662Z,100.00
2022-08-05T22:38:48.712Z,100.00
2022-08-05T22:41:26.436Z,100.00
2022-08-05T22:44:06.737Z,100.00
2022-08-05T22:46:33.884Z,100.00
2022-08-05T22:49:12.231Z,100.00
2022-08-05T22:52:05.486Z,100.00
2022-08-05T22:54:38.889Z,100.00
2022-08-05T22:57:06.980Z,100.00
2022-08-05T22:59:43.917Z,100.00
2022-08-05T23:02:13.697Z,100.00
2022-08-05T23:04:51.339Z,100.00
2022-08-05T23:07:22.087Z,100.00
2022-08-05T23:09:58.230Z,100.00
2022-08-05T23:12:32.538Z,100.00
2022-08-05T23:15:09.041Z,100.00
2022-08-05T23:17:37.477Z,100.00
2022-08-05T23:20:17.970Z,100.00
2022-08-05T23:22:47.123Z,100.00
2022-08-05T23:25:51.552Z,100.00
2022-08-05T23:28:07.657Z,100.00
2022-08-05T23:30:40.194Z,100.00
2022-08-05T23:33:16.279Z,100.00
2022-08-05T23:35:50.977Z,100.00
2022-08-05T23:38:18.399Z,100.00
2022-08-05T23:40:49.786Z,100.00
2022-08-05T23:43:25.387Z,100.00
2022-08-05T23:46:21.306Z,100.00
2022-08-05T23:49:00.942Z,100.00
2022-08-05T23:51:53.683Z,100.00
2022-08-05T23:54:25.508Z,100.00
2022-08-05T23:57:03.393Z,100.00
2022-08-05T23:59:37.668Z,100.00
